| time (UTC) | temp F | wind direction | speed MPH | gust MPH | rain 1hr in | rain 24hr in | rain mn in | humidity % | barometer mb |
| 20260505070034 | 53 | 205 | 10.0 | 14.0 | 0.00 | 0.00 | 0.00 | 89 | 1010.3 |
| 20260505064534 | 54 | 200 | 10.0 | 13.0 | 0.00 | 0.00 | 0.00 | 88 | 1010.2 |
| 20260505063035 | 55 | 202 | 8.0 | 12.0 | 0.00 | 0.00 | 0.00 | 87 | 1010.1 |
| 20260505061530 | 55 | 240 | 10.0 | 14.0 | 0.00 | 0.00 | 0.00 | 86 | 1009.9 |
| 20260505060021 | 56 | 222 | 9.0 | 15.0 | 0.00 | 0.00 | 0.00 | 84 | 1009.7 |
| 20260505054522 | 57 | 226 | 7.0 | 10.0 | 0.00 | 0.00 | 0.00 | 82 | 1009.7 |
| 20260505053013 | 58 | 234 | 8.0 | 13.0 | 0.00 | 0.00 | 0.00 | 80 | 1009.6 |
| 20260505051511 | 59 | 215 | 8.0 | 12.0 | 0.00 | 0.00 | 0.00 | 79 | 1009.6 |
| 20260505041502 | 64 | 212 | 8.0 | 13.0 | 0.00 | 0.00 | 0.00 | 70 | 1008.9 |
| 20260505040101 | 65 | 250 | 7.0 | 12.0 | 0.00 | 0.00 | 0.00 | 68 | 1008.7 |
| 20260505034559 | 67 | 230 | 8.0 | 12.0 | 0.00 | 0.00 | 0.00 | 64 | 1008.6 |
| 20260505033058 | 68 | 220 | 8.0 | 11.0 | 0.00 | 0.00 | 0.00 | 61 | 1008.5 |
| 20260505031606 | 70 | 228 | 5.0 | 9.0 | 0.00 | 0.00 | 0.00 | 60 | 1008.3 |
| 20260505030056 | 72 | 250 | 5.0 | 10.0 | 0.00 | 0.00 | 0.00 | 58 | 1008.1 |
| 20260505024609 | 73 | 236 | 6.0 | 9.0 | 0.00 | 0.00 | 0.00 | 56 | 1008.1 |
| 20260505023056 | 74 | 265 | 6.0 | 9.0 | 0.00 | 0.00 | 0.00 | 53 | 1008.1 |
| 20260505021608 | 74 | 271 | 6.0 | 10.0 | 0.00 | 0.00 | 0.00 | 51 | 1008.2 |
| 20260505020053 | 75 | 251 | 4.0 | 9.0 | 0.00 | 0.00 | 0.00 | 48 | 1008.1 |
| 20260505014553 | 76 | 271 | 4.0 | 10.0 | 0.00 | 0.00 | 0.00 | 47 | 1008.2 |
| 20260505013052 | 77 | 270 | 5.0 | 10.0 | 0.00 | 0.00 | 0.00 | 45 | 1008.2 |
| 20260505011556 | 77 | 276 | 4.0 | 11.0 | 0.00 | 0.00 | 0.00 | 43 | 1008.3 |
| 20260505010050 | 78 | 230 | 4.0 | 9.0 | 0.00 | 0.00 | 0.00 | 41 | 1008.3 |
| 20260505004551 | 78 | 227 | 4.0 | 9.0 | 0.00 | 0.00 | 0.00 | 40 | 1008.3 |
| 20260505003050 | 78 | 262 | 6.0 | 10.0 | 0.00 | 0.00 | 0.00 | 37 | 1008.4 |
| 20260505001549 | 79 | 282 | 3.0 | 11.0 | 0.00 | 0.00 | 0.00 | 36 | 1008.4 |
| 20260505000047 | 78 | 267 | 5.0 | 9.0 | 0.00 | 0.00 | 0.00 | 38 | 1008.4 |
| 20260504234546 | 78 | 245 | 6.0 | 11.0 | 0.00 | 0.00 | 0.00 | 37 | 1008.5 |
| 20260504233056 | 78 | 304 | 6.0 | 12.0 | 0.00 | 0.00 | 0.00 | 36 | 1008.5 |
| 20260504231544 | 78 | 252 | 6.0 | 11.0 | 0.00 | 0.00 | 0.00 | 38 | 1008.5 |
| 20260504230044 | 77 | 190 | 4.0 | 13.0 | 0.00 | 0.00 | 0.00 | 38 | 1008.5 |
| 20260504224543 | 76 | 224 | 5.0 | 10.0 | 0.00 | 0.00 | 0.00 | 41 | 1008.8 |
| 20260504223049 | 77 | 316 | 5.0 | 10.0 | 0.00 | 0.00 | 0.00 | 42 | 1008.9 |
| 20260504221546 | 77 | 269 | 4.0 | 11.0 | 0.00 | 0.00 | 0.00 | 38 | 1009.1 |
| 20260504220058 | 77 | 234 | 6.0 | 11.0 | 0.00 | 0.00 | 0.00 | 38 | 1009.3 |
| 20260504214542 | 76 | 245 | 6.0 | 13.0 | 0.00 | 0.00 | 0.00 | 40 | 1009.2 |
| 20260504213037 | 76 | 259 | 5.0 | 13.0 | 0.00 | 0.00 | 0.00 | 38 | 1009.2 |
| 20260504211535 | 75 | 291 | 5.0 | 12.0 | 0.00 | 0.00 | 0.00 | 38 | 1009.3 |
| 20260504210035 | 76 | 234 | 7.0 | 11.0 | 0.00 | 0.00 | 0.00 | 41 | 1009.4 |
| 20260504204548 | 75 | 157 | 4.0 | 10.0 | 0.00 | 0.00 | 0.00 | 41 | 1009.5 |
| 20260504203034 | 75 | 157 | 3.0 | 8.0 | 0.00 | 0.00 | 0.00 | 39 | 1009.5 |
| 20260504201532 | 75 | 269 | 7.0 | 11.0 | 0.00 | 0.00 | 0.00 | 42 | 1009.4 |
| 20260504200034 | 75 | 201 | 5.0 | 10.0 | 0.00 | 0.00 | 0.00 | 40 | 1009.4 |
| 20260504194536 | 74 | 271 | 4.0 | 9.0 | 0.00 | 0.00 | 0.00 | 42 | 1009.5 |
| 20260504193026 | 74 | 246 | 3.0 | 8.0 | 0.00 | 0.00 | 0.00 | 43 | 1009.6 |
| 20260504191525 | 74 | 327 | 6.0 | 9.0 | 0.00 | 0.00 | 0.00 | 43 | 1009.6 |
| 20260504190029 | 73 | 273 | 5.0 | 9.0 | 0.00 | 0.00 | 0.00 | 46 | 1009.7 |
| 20260504184532 | 72 | 282 | 6.0 | 9.0 | 0.00 | 0.00 | 0.00 | 46 | 1009.7 |
| 20260504183021 | 71 | 234 | 5.0 | 8.0 | 0.00 | 0.00 | 0.00 | 48 | 1009.8 |
| 20260504181517 | 71 | 257 | 4.0 | 9.0 | 0.00 | 0.00 | 0.00 | 50 | 1009.8 |
| 20260504180013 | 70 | 298 | 6.0 | 11.0 | 0.00 | 0.00 | 0.00 | 52 | 1009.9 |
| 20260504174512 | 70 | 282 | 4.0 | 9.0 | 0.00 | 0.00 | 0.00 | 50 | 1009.8 |
| 20260504173010 | 69 | 257 | 4.0 | 7.0 | 0.00 | 0.00 | 0.00 | 54 | 1009.7 |
| 20260504171506 | 68 | 263 | 4.0 | 7.0 | 0.00 | 0.00 | 0.00 | 53 | 1009.7 |
| 20260504081536 | 64 | 42 | 6.0 | 9.0 | 0.00 | 0.00 | 0.00 | 53 | 1008.2 |